Time;durP1;ratioP1;P1;durP2;ratioP2;P2;SDS_P1;SDS_P2;PMS_P1;PMS_P2;Temp;Humidity;BMP_temperature;BMP_pressure;BME280_temperature;BME280_humidity;BME280_pressure;Samples;Min_cycle;Max_cycle;Signal;HPM_P1;HPM_P2
2022/05/18 00:01:43;;;;;;;4.00;2.80;;;23.00;87.10;;;;;;4994999;28;20217;-93
2022/05/18 00:04:08;;;;;;;2.87;2.60;;;23.00;87.10;;;;;;4962828;28;20758;-93
2022/05/18 00:06:34;;;;;;;2.70;2.50;;;23.00;87.10;;;;;;4995045;28;20420;-96
2022/05/18 00:09:00;;;;;;;3.93;2.57;;;23.00;87.00;;;;;;4979120;28;20166;-93
2022/05/18 00:11:26;;;;;;;3.17;2.87;;;22.90;86.90;;;;;;4995074;28;20904;-94
2022/05/18 00:13:54;;;;;;;2.90;2.30;;;23.00;87.00;;;;;;4978964;28;20440;-95
2022/05/18 00:16:22;;;;;;;3.50;2.80;;;22.90;86.80;;;;;;4966001;28;20445;-95
2022/05/18 00:18:48;;;;;;;3.43;3.13;;;22.90;86.80;;;;;;4982549;28;20436;-94
2022/05/18 00:21:15;;;;;;;2.60;2.30;;;22.90;86.80;;;;;;4982242;28;20520;-94
2022/05/18 00:23:42;;;;;;;3.30;2.30;;;22.90;86.80;;;;;;4975251;28;20469;-94
2022/05/18 00:26:08;;;;;;;5.77;2.70;;;22.90;86.80;;;;;;4979179;28;20882;-93
2022/05/18 00:28:34;;;;;;;4.10;2.67;;;22.90;86.80;;;;;;4969243;28;20937;-94
2022/05/18 00:31:01;;;;;;;3.10;2.80;;;22.90;86.90;;;;;;4998449;28;20449;-94
2022/05/18 00:33:27;;;;;;;2.97;2.70;;;22.80;86.80;;;;;;4998681;28;20444;-94
2022/05/18 00:35:53;;;;;;;2.80;2.60;;;22.80;86.80;;;;;;4998388;28;20477;-90
2022/05/18 00:38:19;;;;;;;3.30;2.53;;;22.90;86.90;;;;;;4998529;28;20464;-92
2022/05/18 00:40:48;;;;;;;4.43;2.40;;;22.80;86.80;;;;;;4999086;28;20469;-93
2022/05/18 00:43:17;;;;;;;2.70;2.20;;;22.90;86.90;;;;;;4998133;28;20507;-94
2022/05/18 00:45:43;;;;;;;3.53;2.50;;;22.80;86.70;;;;;;4998343;28;20449;-94
2022/05/18 00:48:09;;;;;;;3.20;3.00;;;22.90;86.90;;;;;;4998126;28;20452;-94
2022/05/18 00:50:37;;;;;;;3.63;2.67;;;22.80;86.80;;;;;;4982037;28;20469;-95
2022/05/18 00:53:22;;;;;;;3.33;2.50;;;22.80;86.80;;;;;;4981628;28;20427;-94
2022/05/18 00:55:58;;;;;;;2.53;2.33;;;22.80;86.80;;;;;;4998918;28;20842;-93
2022/05/18 00:58:35;;;;;;;2.97;2.77;;;22.80;86.90;;;;;;4982035;28;20480;-91
2022/05/18 01:01:02;;;;;;;3.03;2.73;;;22.80;87.00;;;;;;4998042;28;20907;-94
2022/05/18 01:03:54;;;;;;;3.00;2.70;;;22.70;86.90;;;;;;4981396;28;20452;-94
2022/05/18 01:06:33;;;;;;;4.10;3.70;;;22.80;86.90;;;;;;4976746;28;20513;-94
2022/05/18 01:09:10;;;;;;;3.67;2.67;;;22.70;86.90;;;;;;4975263;28;20424;-94
2022/05/18 01:11:41;;;;;;;3.63;2.80;;;22.70;86.90;;;;;;4981705;28;20424;-94
2022/05/18 01:14:25;;;;;;;3.03;2.50;;;22.70;86.90;;;;;;4981722;28;20433;-94
2022/05/18 01:16:52;;;;;;;4.30;2.90;;;22.70;86.90;;;;;;4997550;28;20448;-93
2022/05/18 01:19:39;;;;;;;2.90;2.60;;;22.70;86.90;;;;;;4981666;28;20444;-91
2022/05/18 01:22:36;;;;;;;2.73;2.00;;;22.70;87.00;;;;;;4997360;28;20507;-94
2022/05/18 01:25:29;;;;;;;4.47;2.90;;;22.70;87.00;;;;;;4998491;28;20440;-93
2022/05/18 01:27:57;;;;;;;4.10;2.73;;;22.70;86.90;;;;;;4975961;28;20422;-94
2022/05/18 01:30:30;;;;;;;3.30;2.80;;;22.60;86.80;;;;;;4946175;28;20516;-94
2022/05/18 01:32:58;;;;;;;2.93;2.73;;;22.60;86.90;;;;;;4978011;28;20402;-94
2022/05/18 01:35:28;;;;;;;3.70;3.03;;;22.60;87.00;;;;;;4962027;28;20430;-94
2022/05/18 01:37:57;;;;;;;5.20;2.90;;;22.60;87.10;;;;;;4978020;28;20429;-95
2022/05/18 01:40:38;;;;;;;2.93;2.37;;;22.60;87.00;;;;;;4962046;28;20458;-94
2022/05/18 01:43:14;;;;;;;2.90;2.43;;;22.60;87.00;;;;;;4961691;28;20945;-93
2022/05/18 01:45:40;;;;;;;3.57;3.20;;;22.60;87.00;;;;;;4977943;28;20414;-91
2022/05/18 01:48:14;;;;;;;3.33;2.60;;;22.60;87.00;;;;;;4978323;28;20902;-95
2022/05/18 01:50:44;;;;;;;3.30;2.60;;;22.60;87.10;;;;;;4978417;28;20442;-94
2022/05/18 01:53:10;;;;;;;2.43;2.23;;;22.60;87.10;;;;;;4961654;28;20418;-94
2022/05/18 01:55:38;;;;;;;3.07;2.77;;;22.60;87.10;;;;;;4988550;28;20432;-92
2022/05/18 01:58:05;;;;;;;3.20;2.90;;;22.60;87.10;;;;;;4964908;28;20521;-92
2022/05/18 02:00:33;;;;;;;3.37;2.80;;;22.50;86.90;;;;;;4997480;28;20538;-95
2022/05/18 02:02:59;;;;;;;3.10;2.60;;;22.50;87.00;;;;;;4996443;28;20428;-94
2022/05/18 02:05:28;;;;;;;2.83;2.63;;;22.50;87.10;;;;;;4997567;28;20177;-94
2022/05/18 02:07:56;;;;;;;3.53;2.27;;;22.50;87.10;;;;;;4980500;28;20448;-92
2022/05/18 02:10:23;;;;;;;3.10;2.80;;;22.50;87.10;;;;;;4996293;28;20503;-94
2022/05/18 02:12:51;;;;;;;3.10;2.73;;;22.50;87.00;;;;;;4996824;28;20523;-94
2022/05/18 02:15:17;;;;;;;3.00;2.80;;;22.50;87.00;;;;;;4979630;28;20512;-94
2022/05/18 02:17:43;;;;;;;2.90;2.60;;;22.50;87.00;;;;;;4979383;28;20523;-94
2022/05/18 02:20:11;;;;;;;3.40;2.70;;;22.50;87.00;;;;;;4979601;28;20479;-92
2022/05/18 02:22:40;;;;;;;3.53;3.00;;;22.50;87.10;;;;;;4976967;28;20457;-93
2022/05/18 02:25:08;;;;;;;3.23;2.93;;;22.50;87.20;;;;;;4977031;28;20470;-94
2022/05/18 02:27:42;;;;;;;3.50;2.90;;;22.50;87.20;;;;;;4977020;28;20418;-94
2022/05/18 02:30:11;;;;;;;3.00;2.50;;;22.50;87.30;;;;;;4977836;28;20410;-91
2022/05/18 02:32:37;;;;;;;2.87;2.57;;;22.40;87.20;;;;;;4960782;28;20903;-92
2022/05/18 02:35:05;;;;;;;2.70;2.50;;;22.40;87.30;;;;;;4994919;28;20936;-92
2022/05/18 02:37:36;;;;;;;2.63;2.43;;;22.40;87.30;;;;;;4980127;28;20445;-93
2022/05/18 02:40:04;;;;;;;3.10;2.70;;;22.40;87.30;;;;;;4976576;28;20478;-93
2022/05/18 02:42:32;;;;;;;3.30;3.00;;;22.40;87.30;;;;;;4977025;28;20499;-93
2022/05/18 02:44:58;;;;;;;3.40;3.10;;;22.40;87.40;;;;;;4976677;28;20818;-94
2022/05/18 02:47:24;;;;;;;3.27;3.03;;;22.40;87.40;;;;;;4976962;28;20504;-95
2022/05/18 02:49:54;;;;;;;2.97;2.63;;;22.40;87.40;;;;;;4995873;28;20557;-94
2022/05/18 02:52:20;;;;;;;4.20;2.97;;;22.30;87.30;;;;;;4995749;28;20477;-93
2022/05/18 02:57:31;;;;;;;3.80;3.17;;;22.30;87.40;;;;;;4976625;28;20925;-93
2022/05/18 02:59:57;;;;;;;3.30;3.00;;;22.40;87.50;;;;;;4960309;28;20480;-93
2022/05/18 03:02:24;;;;;;;3.27;2.97;;;22.30;87.50;;;;;;4976556;28;20581;-93
2022/05/18 03:04:50;;;;;;;5.73;2.70;;;22.30;87.50;;;;;;4977427;28;20436;-92
2022/05/18 03:07:18;;;;;;;3.00;2.60;;;22.30;87.60;;;;;;4995945;28;20398;-92
2022/05/18 03:09:43;;;;;;;3.67;3.20;;;22.30;87.70;;;;;;4979512;28;20436;-93
2022/05/18 03:12:10;;;;;;;4.37;3.20;;;22.30;87.60;;;;;;4977016;28;20862;-93
2022/05/18 03:14:38;;;;;;;3.23;2.83;;;22.30;87.60;;;;;;4962503;28;20464;-94
2022/05/18 03:17:05;;;;;;;2.93;2.40;;;22.30;87.60;;;;;;4944993;28;20433;-92
2022/05/18 03:19:33;;;;;;;3.23;2.70;;;22.30;87.60;;;;;;4977924;28;20444;-93
2022/05/18 03:24:46;;;;;;;4.67;2.70;;;22.30;87.60;;;;;;4995620;28;20499;-94
2022/05/18 03:27:15;;;;;;;3.40;3.10;;;22.30;87.60;;;;;;4996346;28;20428;-93
2022/05/18 03:29:40;;;;;;;5.80;3.20;;;22.20;87.60;;;;;;4960312;28;20434;-94
2022/05/18 03:32:07;;;;;;;3.13;2.73;;;22.20;87.70;;;;;;4959974;28;20473;-90
2022/05/18 03:34:35;;;;;;;4.20;2.60;;;22.20;87.80;;;;;;4979554;28;20189;-94
2022/05/18 03:37:02;;;;;;;3.50;3.20;;;22.20;87.90;;;;;;4965724;28;20545;-94
2022/05/18 03:39:33;;;;;;;3.80;3.10;;;22.20;87.90;;;;;;4976219;28;20442;-94
2022/05/18 03:41:59;;;;;;;2.87;2.67;;;22.20;87.90;;;;;;4972425;28;20443;-93
2022/05/18 03:44:28;;;;;;;2.80;2.57;;;22.10;87.60;;;;;;4995584;28;20447;-94
2022/05/18 03:46:58;;;;;;;5.70;3.60;;;22.20;87.80;;;;;;4995398;28;20853;-93
2022/05/18 03:49:29;;;;;;;3.33;3.03;;;22.20;87.80;;;;;;4979616;28;20461;-93
2022/05/18 03:51:55;;;;;;;5.83;3.30;;;22.20;87.90;;;;;;4983081;28;20421;-91
2022/05/18 03:54:21;;;;;;;5.30;3.33;;;22.10;87.80;;;;;;4982688;28;20474;-93
2022/05/18 03:56:49;;;;;;;3.03;2.80;;;22.10;87.80;;;;;;4998982;28;20297;-94
2022/05/18 03:59:15;;;;;;;3.47;3.17;;;22.10;87.80;;;;;;4983107;28;20483;-92
2022/05/18 04:01:41;;;;;;;3.70;2.80;;;22.10;87.70;;;;;;4998844;28;20217;-93
2022/05/18 04:04:08;;;;;;;3.50;3.20;;;22.10;87.80;;;;;;4999153;28;20176;-90
2022/05/18 04:06:39;;;;;;;3.67;3.30;;;22.10;87.80;;;;;;4973359;28;20469;-93
2022/05/18 04:09:07;;;;;;;3.63;3.30;;;22.10;87.80;;;;;;4947591;28;20751;-92
2022/05/18 04:11:35;;;;;;;3.10;2.80;;;22.10;87.80;;;;;;4979549;28;20426;-92
2022/05/18 04:14:03;;;;;;;7.20;3.20;;;22.10;87.80;;;;;;4992167;28;20769;-93
2022/05/18 04:16:29;;;;;;;3.87;3.30;;;22.10;87.80;;;;;;4966452;28;20509;-94
2022/05/18 04:18:57;;;;;;;3.30;3.00;;;22.10;87.80;;;;;;4998617;28;20727;-92
2022/05/18 04:21:23;;;;;;;3.03;2.63;;;22.10;87.80;;;;;;4982524;28;20529;-94
2022/05/18 04:23:51;;;;;;;5.47;3.20;;;22.00;87.70;;;;;;4967202;28;20181;-92
2022/05/18 04:26:17;;;;;;;3.20;2.90;;;22.10;87.80;;;;;;4974746;28;20467;-91
2022/05/18 04:28:46;;;;;;;3.03;2.70;;;22.00;87.70;;;;;;4979307;28;20224;-94
2022/05/18 04:31:12;;;;;;;3.47;3.17;;;22.10;87.90;;;;;;4977404;28;20437;-94
2022/05/18 04:33:40;;;;;;;3.17;2.97;;;22.00;87.80;;;;;;4982432;28;20491;-94
2022/05/18 04:36:09;;;;;;;3.60;2.80;;;22.00;87.80;;;;;;4983166;28;20425;-94
2022/05/18 04:38:35;;;;;;;2.97;2.77;;;22.00;87.80;;;;;;4982097;28;20564;-94
2022/05/18 04:41:01;;;;;;;2.83;2.63;;;22.00;87.80;;;;;;4981598;28;20300;-93
2022/05/18 04:43:32;;;;;;;4.83;2.70;;;22.00;87.90;;;;;;4997887;28;20647;-94
2022/05/18 04:45:58;;;;;;;3.47;3.17;;;22.00;87.80;;;;;;4997989;28;20513;-94
2022/05/18 04:48:30;;;;;;;5.07;3.30;;;22.00;88.00;;;;;;4982416;28;20466;-93
2022/05/18 04:50:56;;;;;;;3.63;3.10;;;22.00;88.10;;;;;;4998653;28;20445;-93
2022/05/18 04:53:22;;;;;;;4.00;3.17;;;22.00;88.10;;;;;;4981632;28;20473;-93
2022/05/18 04:55:51;;;;;;;3.33;3.03;;;22.00;88.10;;;;;;4991325;28;20437;-93
2022/05/18 04:58:20;;;;;;;4.43;3.40;;;22.00;88.10;;;;;;4979266;28;20759;-95
2022/05/18 05:00:51;;;;;;;3.60;3.30;;;21.90;88.00;;;;;;4989074;28;20529;-94
2022/05/18 05:03:17;;;;;;;3.43;2.80;;;22.00;88.20;;;;;;4981445;28;20435;-94
2022/05/18 05:05:43;;;;;;;3.23;2.83;;;22.00;88.20;;;;;;4998032;28;20803;-95
2022/05/18 05:08:14;;;;;;;3.50;3.20;;;22.00;88.20;;;;;;4987096;28;20525;-95
2022/05/18 05:10:42;;;;;;;4.13;3.23;;;22.00;88.20;;;;;;4978229;28;20435;-95
2022/05/18 05:13:08;;;;;;;3.63;3.30;;;22.00;88.20;;;;;;4978298;28;20495;-94
2022/05/18 05:15:34;;;;;;;3.77;3.47;;;22.00;88.20;;;;;;4978338;28;21034;-94
2022/05/18 05:18:00;;;;;;;3.23;2.93;;;21.90;88.10;;;;;;4946586;28;20438;-94
2022/05/18 05:20:26;;;;;;;3.50;3.20;;;21.90;88.00;;;;;;4962130;28;20471;-92
2022/05/18 05:23:07;;;;;;;4.87;3.27;;;21.90;88.80;;;;;;4963335;28;20264;-95
2022/05/18 05:26:09;;;;;;;4.10;3.17;;;21.90;87.80;;;;;;4965356;28;20751;-95
2022/05/18 05:28:34;;;;;;;3.93;3.53;;;21.90;87.70;;;;;;4946424;28;20507;-94
2022/05/18 05:31:05;;;;;;;4.50;3.40;;;21.90;88.00;;;;;;4980986;28;20791;-94
2022/05/18 05:33:32;;;;;;;5.87;3.37;;;21.90;88.30;;;;;;4979765;28;20471;-94
2022/05/18 05:36:04;;;;;;;4.80;3.60;;;21.80;88.40;;;;;;4993496;28;20432;-95
2022/05/18 05:38:30;;;;;;;3.70;3.40;;;21.90;88.80;;;;;;4980933;28;20458;-94
2022/05/18 05:40:56;;;;;;;5.00;3.20;;;21.90;89.60;;;;;;4980748;28;20470;-95
2022/05/18 05:43:22;;;;;;;4.47;4.00;;;21.90;88.40;;;;;;4981140;28;20914;-94
2022/05/18 05:45:58;;;;;;;3.60;3.30;;;21.90;88.30;;;;;;4997206;28;20969;-94
2022/05/18 05:48:25;;;;;;;4.03;3.60;;;21.90;88.30;;;;;;5013360;28;20445;-94
2022/05/18 05:50:58;;;;;;;4.27;3.77;;;21.90;88.30;;;;;;4964695;28;20477;-95
2022/05/18 05:53:24;;;;;;;7.30;3.47;;;21.90;88.30;;;;;;5013237;28;20916;-95
2022/05/18 05:55:51;;;;;;;5.57;3.43;;;21.90;88.30;;;;;;4997161;28;20489;-95
2022/05/18 05:58:18;;;;;;;4.27;3.40;;;21.90;88.90;;;;;;4965083;28;20518;-93
2022/05/18 06:00:45;;;;;;;4.17;3.87;;;21.90;88.20;;;;;;5013369;28;20459;-95
2022/05/18 06:03:16;;;;;;;3.50;3.20;;;21.90;88.30;;;;;;4980995;28;20437;-95
2022/05/18 06:05:42;;;;;;;4.17;3.13;;;21.90;88.30;;;;;;4997312;28;20413;-95
2022/05/18 06:08:09;;;;;;;4.80;3.37;;;21.90;88.30;;;;;;4980620;28;20422;-94
2022/05/18 06:10:35;;;;;;;3.47;3.17;;;21.90;88.30;;;;;;4964745;28;20444;-94
2022/05/18 06:13:09;;;;;;;4.10;3.20;;;21.90;88.20;;;;;;4964146;28;20532;-95
2022/05/18 06:15:35;;;;;;;3.80;3.17;;;21.90;88.20;;;;;;4996944;28;20429;-94
2022/05/18 06:18:02;;;;;;;3.80;3.43;;;21.90;88.20;;;;;;4964487;28;20447;-94
2022/05/18 06:20:29;;;;;;;3.77;3.20;;;21.90;88.00;;;;;;4996599;28;20527;-95
2022/05/18 06:22:57;;;;;;;3.40;3.10;;;21.90;87.90;;;;;;4997588;28;20409;-95
2022/05/18 06:25:24;;;;;;;4.03;3.33;;;21.90;87.90;;;;;;4964200;28;20440;-95
2022/05/18 06:27:50;;;;;;;4.53;2.87;;;21.90;87.80;;;;;;4980512;28;20719;-94
2022/05/18 06:30:16;;;;;;;3.47;3.17;;;21.90;87.80;;;;;;4996623;28;20523;-95
2022/05/18 06:32:42;;;;;;;3.40;3.10;;;21.90;87.80;;;;;;4980643;28;20440;-94
2022/05/18 06:35:08;;;;;;;5.80;3.63;;;21.90;87.70;;;;;;4964257;28;20460;-96
2022/05/18 06:37:34;;;;;;;5.60;3.10;;;21.90;87.80;;;;;;4964088;28;20955;-94
2022/05/18 06:40:06;;;;;;;3.43;3.00;;;21.90;87.80;;;;;;4980320;28;20835;-95
2022/05/18 06:42:32;;;;;;;4.60;3.43;;;21.90;87.90;;;;;;4963877;28;21085;-95
2022/05/18 06:44:59;;;;;;;3.83;3.30;;;21.90;88.00;;;;;;4980171;28;20432;-95
2022/05/18 06:47:26;;;;;;;5.83;2.90;;;21.90;88.00;;;;;;4996409;28;20422;-95
2022/05/18 06:49:52;;;;;;;4.60;3.60;;;21.90;88.10;;;;;;4996565;28;20559;-96
2022/05/18 06:52:18;;;;;;;6.83;2.93;;;22.00;88.50;;;;;;4964028;28;20522;-95
2022/05/18 06:54:45;;;;;;;4.80;3.40;;;21.90;88.50;;;;;;4996343;28;20507;-95
2022/05/18 06:57:11;;;;;;;3.50;3.17;;;21.90;88.50;;;;;;4980050;28;20530;-95
2022/05/18 06:59:40;;;;;;;4.20;3.50;;;21.90;88.70;;;;;;4979738;28;20437;-94
2022/05/18 07:02:06;;;;;;;4.07;3.30;;;22.00;88.90;;;;;;4995734;28;20439;-95
2022/05/18 07:04:32;;;;;;;3.60;3.30;;;22.00;88.90;;;;;;4979994;28;20488;-94
2022/05/18 07:07:00;;;;;;;4.20;3.50;;;22.00;88.90;;;;;;4996047;28;20458;-94
2022/05/18 07:09:27;;;;;;;3.40;3.10;;;22.00;89.00;;;;;;4979711;28;20417;-95
2022/05/18 07:11:54;;;;;;;3.47;3.17;;;22.00;88.90;;;;;;4979975;28;20444;-95
2022/05/18 07:14:22;;;;;;;3.57;3.20;;;22.00;88.90;;;;;;4979758;28;20769;-95
2022/05/18 07:16:48;;;;;;;3.57;3.00;;;22.00;89.10;;;;;;4979791;28;20869;-96
2022/05/18 07:19:30;;;;;;;3.97;3.57;;;22.00;88.90;;;;;;4975610;28;21013;-96
2022/05/18 07:21:56;;;;;;;3.23;3.03;;;22.00;89.00;;;;;;4976274;28;20469;-95
2022/05/18 07:24:22;;;;;;;3.77;3.20;;;22.00;89.00;;;;;;4976724;28;20491;-96
2022/05/18 07:26:48;;;;;;;5.13;3.20;;;22.00;89.20;;;;;;4981131;28;20401;-94
2022/05/18 07:29:20;;;;;;;4.57;3.23;;;22.10;89.40;;;;;;4996253;28;20434;-96
2022/05/18 07:35:44;;;;;;;3.53;2.97;;;22.10;89.40;;;;;;4963149;28;20441;-95
2022/05/18 07:38:17;;;;;;;3.10;2.80;;;22.20;89.60;;;;;;4982345;28;20726;-95
2022/05/18 07:40:44;;;;;;;5.67;3.50;;;22.10;89.50;;;;;;4966007;28;20499;-95
2022/05/18 07:43:09;;;;;;;3.90;3.13;;;22.20;89.60;;;;;;4982169;28;20464;-95
2022/05/18 07:45:35;;;;;;;4.10;3.03;;;22.20;89.60;;;;;;4966568;28;20433;-95
2022/05/18 07:48:26;;;;;;;4.60;3.23;;;22.20;89.60;;;;;;4965590;28;20428;-95
2022/05/18 07:51:00;;;;;;;3.30;3.00;;;22.20;89.70;;;;;;4950371;28;20471;-95
2022/05/18 07:53:32;;;;;;;3.60;3.30;;;22.30;89.90;;;;;;4982121;28;20439;-94
2022/05/18 07:57:05;;;;;;;3.50;3.10;;;22.30;90.00;;;;;;4966223;28;20447;-95
2022/05/18 08:02:29;;;;;;;5.83;3.23;;;22.30;90.00;;;;;;4979504;28;20914;-96
2022/05/18 08:05:16;;;;;;;;;;;;;;;;;;;;;
2022/05/18 08:08:23;;;;;;;3.90;2.93;;;22.40;90.00;;;;;;4984105;28;20933;-95
2022/05/18 08:16:54;;;;;;;4.27;2.90;;;22.50;90.10;;;;;;4999207;28;20435;-94
2022/05/18 08:19:20;;;;;;;3.20;2.90;;;22.50;90.10;;;;;;4998821;28;20861;-95
2022/05/18 08:21:47;;;;;;;3.63;3.20;;;22.50;90.10;;;;;;4982387;28;20556;-96
2022/05/18 08:24:13;;;;;;;3.73;3.10;;;22.50;90.10;;;;;;4982742;28;20461;-95
2022/05/18 08:26:41;;;;;;;3.57;3.10;;;22.60;90.10;;;;;;4982528;28;20425;-95
2022/05/18 08:29:08;;;;;;;5.87;3.13;;;22.60;90.10;;;;;;4999450;28;20492;-94
2022/05/18 08:31:43;;;;;;;3.40;3.10;;;22.60;90.00;;;;;;4982918;28;20509;-96
2022/05/18 08:34:09;;;;;;;5.33;3.17;;;22.60;90.00;;;;;;4998181;28;20441;-95
2022/05/18 08:36:35;;;;;;;3.33;3.03;;;22.70;90.10;;;;;;4981918;28;20535;-96
2022/05/18 08:39:01;;;;;;;3.63;2.90;;;22.70;90.00;;;;;;4971136;28;20438;-95
2022/05/18 08:41:36;;;;;;;4.53;3.23;;;22.70;90.00;;;;;;4966713;28;20472;-95
2022/05/18 08:44:18;;;;;;;3.60;3.30;;;22.80;90.00;;;;;;4982451;28;20420;-95
2022/05/18 08:46:54;;;;;;;4.03;3.07;;;22.80;90.00;;;;;;4981718;28;20536;-95
2022/05/18 08:49:33;;;;;;;3.30;3.00;;;22.80;89.90;;;;;;4982574;28;20432;-95
2022/05/18 08:52:21;;;;;;;3.50;3.00;;;22.80;89.90;;;;;;4981915;28;20548;-95
2022/05/18 08:55:18;;;;;;;4.50;3.20;;;22.90;90.00;;;;;;4982165;28;20446;-94
2022/05/18 08:57:48;;;;;;;4.83;3.20;;;22.90;89.90;;;;;;4998350;28;20429;-94
2022/05/18 09:00:21;;;;;;;3.73;2.93;;;23.00;90.00;;;;;;4974046;28;20457;-94
2022/05/18 09:02:59;;;;;;;6.77;3.20;;;23.00;90.00;;;;;;4962997;28;20766;-96
2022/05/18 09:05:55;;;;;;;4.73;3.30;;;23.00;90.00;;;;;;4962534;28;20457;-95
2022/05/18 09:08:40;;;;;;;3.90;3.00;;;23.10;90.00;;;;;;4943922;28;20471;-96
2022/05/18 09:11:19;;;;;;;4.50;3.30;;;23.10;90.00;;;;;;4963009;28;21032;-95
2022/05/18 09:13:46;;;;;;;4.97;3.63;;;23.10;89.90;;;;;;4947149;28;20437;-95
2022/05/18 09:16:33;;;;;;;3.53;3.23;;;23.20;90.00;;;;;;4978150;28;20836;-95
2022/05/18 09:18:58;;;;;;;4.10;3.70;;;23.20;89.90;;;;;;4978307;28;20445;-94
2022/05/18 09:30:02;;;;;;;6.00;3.37;;;23.30;90.00;;;;;;4979282;28;20426;-93
2022/05/18 09:33:06;;;;;;;4.77;3.20;;;23.40;90.10;;;;;;4946247;28;20512;-94
2022/05/18 09:35:47;;;;;;;3.70;2.90;;;23.40;90.50;;;;;;4977974;28;20429;-93
2022/05/18 09:38:50;;;;;;;3.10;2.80;;;23.50;90.10;;;;;;4964623;28;20457;-95
2022/05/18 09:41:20;;;;;;;6.33;3.60;;;23.50;90.00;;;;;;4989321;28;20524;-94
2022/05/18 09:44:08;;;;;;;4.90;2.80;;;23.50;90.00;;;;;;4997208;28;20421;-95
2022/05/18 09:46:35;;;;;;;6.13;3.70;;;23.60;90.10;;;;;;4980806;28;20416;-94
2022/05/18 09:49:13;;;;;;;4.80;3.57;;;23.70;90.10;;;;;;4997433;28;20961;-95
2022/05/18 09:51:40;;;;;;;4.63;3.37;;;23.70;90.10;;;;;;4981359;28;20443;-95
2022/05/18 09:54:09;;;;;;;4.30;3.50;;;23.80;90.10;;;;;;4981609;28;20460;-95
2022/05/18 09:57:05;;;;;;;6.27;3.30;;;23.80;90.10;;;;;;4981238;28;20526;-95
2022/05/18 09:59:37;;;;;;;5.00;2.80;;;23.80;90.00;;;;;;4996887;28;20436;-96
2022/05/18 10:07:50;;;;;;;4.67;3.67;;;24.00;90.00;;;;;;4997930;28;20448;-95
2022/05/18 10:13:20;;;;;;;4.60;2.77;;;24.10;89.90;;;;;;4995668;28;20453;-95
2022/05/18 10:15:49;;;;;;;6.23;3.67;;;24.10;89.70;;;;;;4980544;28;20486;-95
2022/05/18 10:18:46;;;;;;;3.80;2.90;;;24.20;89.50;;;;;;4980749;28;20483;-95
2022/05/18 10:21:26;;;;;;;4.23;3.23;;;24.20;89.30;;;;;;4980145;28;20458;-94
2022/05/18 10:23:52;;;;;;;4.20;3.50;;;24.30;89.50;;;;;;4980371;28;20417;-95
2022/05/18 10:26:38;;;;;;;5.30;3.67;;;24.30;89.30;;;;;;4980628;28;20414;-96
2022/05/18 10:29:06;;;;;;;3.57;3.27;;;24.40;89.40;;;;;;4980522;28;20182;-95
2022/05/18 10:31:35;;;;;;;3.30;3.00;;;24.40;89.00;;;;;;4964151;28;20936;-95
2022/05/18 10:34:36;;;;;;;5.13;4.07;;;24.50;89.80;;;;;;4980536;28;20460;-96
2022/05/18 10:37:12;;;;;;;3.40;3.10;;;24.50;88.80;;;;;;4950323;28;20464;-93
2022/05/18 10:39:44;;;;;;;4.30;3.00;;;24.50;88.40;;;;;;4981137;28;20476;-95
2022/05/18 10:42:29;;;;;;;3.80;3.40;;;24.60;88.60;;;;;;4969146;28;20479;-94
2022/05/18 10:45:00;;;;;;;6.00;3.40;;;24.70;88.50;;;;;;4996395;28;20438;-94
2022/05/18 10:47:35;;;;;;;6.50;3.60;;;24.70;88.40;;;;;;4979489;28;20511;-93
2022/05/18 10:50:24;;;;;;;6.37;3.80;;;24.80;88.40;;;;;;4996032;28;20837;-95
2022/05/18 10:53:00;;;;;;;6.77;3.70;;;24.80;88.30;;;;;;4996356;28;20433;-94
2022/05/18 10:55:31;;;;;;;4.60;3.37;;;24.80;88.20;;;;;;4979887;28;20452;-94
2022/05/18 10:58:05;;;;;;;4.00;3.60;;;24.90;88.10;;;;;;4995629;28;20390;-94
2022/05/18 11:00:53;;;;;;;4.00;3.33;;;24.90;88.10;;;;;;4994940;28;20472;-94
2022/05/18 11:03:41;;;;;;;3.93;3.10;;;25.00;88.10;;;;;;4995604;28;20406;-94
2022/05/18 11:06:28;;;;;;;6.10;3.20;;;25.00;87.90;;;;;;4995836;28;20425;-94
2022/05/18 11:09:07;;;;;;;4.37;3.47;;;25.10;87.80;;;;;;4975479;28;20781;-95
2022/05/18 11:11:44;;;;;;;4.07;3.67;;;25.10;87.60;;;;;;4977344;28;20790;-95
2022/05/18 11:14:38;;;;;;;3.63;3.20;;;25.10;87.50;;;;;;4957447;28;20460;-95
2022/05/18 11:17:44;;;;;;;4.27;3.60;;;25.20;87.50;;;;;;4995207;28;20951;-94
2022/05/18 11:21:16;;;;;;;;;;;;;;;;;;;;;
2022/05/18 11:24:09;;;;;;;4.57;3.37;;;25.30;87.30;;;;;;4994867;28;20503;-96
2022/05/18 11:27:02;;;;;;;8.90;3.90;;;25.30;87.00;;;;;;4982033;28;20512;-92
2022/05/18 11:29:45;;;;;;;3.57;3.27;;;25.30;87.00;;;;;;4995937;28;20421;-96
2022/05/18 11:32:49;;;;;;;5.10;3.33;;;25.40;86.90;;;;;;4980700;28;20434;-96
2022/05/18 11:35:40;;;;;;;3.57;3.07;;;25.40;86.70;;;;;;4976306;28;20513;-94
2022/05/18 11:38:19;;;;;;;4.90;3.57;;;25.40;86.30;;;;;;4994513;28;20796;-95
2022/05/18 11:41:01;;;;;;;6.30;3.33;;;25.50;86.10;;;;;;4979297;28;20469;-95
2022/05/18 11:43:42;;;;;;;4.50;3.20;;;25.60;85.80;;;;;;4979536;28;20430;-96
2022/05/18 11:46:38;;;;;;;3.60;3.30;;;25.60;85.50;;;;;;4979351;28;20434;-95
2022/05/18 11:49:23;;;;;;;3.90;3.50;;;25.70;84.80;;;;;;4963916;28;20832;-95
2022/05/18 11:51:58;;;;;;;3.70;3.40;;;25.70;84.30;;;;;;4979324;28;20495;-95
2022/05/18 11:55:02;;;;;;;3.40;3.10;;;25.80;84.00;;;;;;4995340;28;20911;-94
2022/05/18 11:57:54;;;;;;;3.93;3.53;;;25.80;83.90;;;;;;4979366;28;20426;-96
2022/05/18 12:00:52;;;;;;;4.20;3.80;;;25.90;83.70;;;;;;4995379;28;20475;-94
2022/05/18 12:03:49;;;;;;;3.70;3.20;;;25.90;83.50;;;;;;4995617;28;20422;-96
2022/05/18 12:06:26;;;;;;;3.80;3.50;;;25.90;83.40;;;;;;4979214;28;20404;-95
2022/05/18 12:09:20;;;;;;;3.60;3.03;;;26.00;83.20;;;;;;4978889;28;20441;-95
2022/05/18 12:12:23;;;;;;;4.93;3.40;;;26.00;82.80;;;;;;4981490;28;20444;-93
2022/05/18 12:15:25;;;;;;;6.30;3.50;;;26.10;82.50;;;;;;4962328;28;20440;-93
2022/05/18 12:18:25;;;;;;;4.30;3.40;;;26.10;82.20;;;;;;4982791;28;20433;-95
2022/05/18 12:21:17;;;;;;;3.97;3.57;;;26.10;82.00;;;;;;4983022;28;20505;-95
2022/05/18 12:23:53;;;;;;;6.70;3.60;;;26.20;82.00;;;;;;4982565;28;20426;-95
2022/05/18 12:30:27;;;;;;;4.60;3.10;;;26.30;81.70;;;;;;4923908;29;20503;-95
2022/05/18 12:32:56;;;;;;;4.20;3.60;;;26.30;81.50;;;;;;4923910;29;20530;-96
2022/05/18 12:35:45;;;;;;;5.07;3.23;;;26.40;81.60;;;;;;4908077;29;20762;-95
2022/05/18 12:38:58;;;;;;;5.97;3.00;;;26.40;81.10;;;;;;4895438;29;21033;-95
2022/05/18 12:41:32;;;;;;;4.73;3.03;;;26.40;80.90;;;;;;4889276;29;20486;-95
2022/05/18 12:48:21;;;;;;;3.63;3.30;;;26.60;80.90;;;;;;4920526;29;20859;-95
2022/05/18 12:54:09;;;;;;;4.30;3.57;;;26.70;80.30;;;;;;4922788;29;20471;-95
2022/05/18 12:56:35;;;;;;;3.47;3.17;;;26.70;80.10;;;;;;4939587;29;20431;-94
2022/05/18 12:59:08;;;;;;;4.07;3.67;;;26.70;80.00;;;;;;4903789;28;20429;-95
2022/05/18 13:01:40;;;;;;;4.13;3.50;;;26.80;80.10;;;;;;4997898;28;20291;-96
2022/05/18 13:04:09;;;;;;;3.40;3.10;;;26.80;79.90;;;;;;4982161;28;20440;-94
2022/05/18 13:06:43;;;;;;;6.33;3.10;;;26.90;79.90;;;;;;4981717;28;20459;-93
2022/05/18 13:09:36;;;;;;;3.97;3.57;;;26.90;79.70;;;;;;4998783;28;20411;-95
2022/05/18 13:12:18;;;;;;;4.93;3.30;;;27.00;79.70;;;;;;4965863;28;20520;-92
2022/05/18 13:14:56;;;;;;;5.80;3.00;;;27.00;79.50;;;;;;4998265;28;20862;-96
2022/05/18 13:17:24;;;;;;;4.10;3.60;;;27.00;79.30;;;;;;4965990;28;20441;-95
2022/05/18 13:19:59;;;;;;;3.77;3.40;;;27.10;79.30;;;;;;4975040;28;20470;-93
2022/05/18 13:22:48;;;;;;;4.50;3.37;;;27.10;79.20;;;;;;4997038;28;20420;-95
2022/05/18 13:25:17;;;;;;;6.47;3.53;;;27.10;79.20;;;;;;4992862;28;20559;-95
2022/05/18 13:27:52;;;;;;;5.87;3.40;;;27.20;79.10;;;;;;4981720;28;20754;-95
2022/05/18 13:30:49;;;;;;;4.53;3.23;;;27.20;79.10;;;;;;4965868;28;20428;-95
2022/05/18 13:33:15;;;;;;;3.67;3.30;;;27.30;78.90;;;;;;4998421;28;20491;-96
2022/05/18 13:35:42;;;;;;;3.50;3.20;;;27.30;78.80;;;;;;4981645;28;20963;-95
2022/05/18 13:38:19;;;;;;;4.33;3.27;;;27.40;78.70;;;;;;4998061;28;20778;-95
2022/05/18 13:41:03;;;;;;;3.83;3.07;;;27.40;78.60;;;;;;4981601;28;20464;-96
2022/05/18 13:43:32;;;;;;;3.87;3.50;;;27.40;78.30;;;;;;4981131;28;20433;-96
2022/05/18 13:46:05;;;;;;;7.70;3.13;;;27.50;78.10;;;;;;4997933;28;20514;-96
2022/05/18 13:48:31;;;;;;;4.27;3.27;;;27.50;77.90;;;;;;4965501;28;20423;-95
2022/05/18 13:51:10;;;;;;;4.17;3.20;;;27.60;77.70;;;;;;4997268;28;20433;-95
2022/05/18 13:54:00;;;;;;;3.63;3.33;;;27.60;77.00;;;;;;4997232;28;20461;-95
2022/05/18 13:56:34;;;;;;;4.60;3.30;;;27.60;76.50;;;;;;4980899;28;20431;-95
2022/05/18 13:59:22;;;;;;;3.13;2.83;;;27.70;76.20;;;;;;4997032;28;20452;-95
2022/05/18 14:01:50;;;;;;;3.23;3.03;;;27.70;76.30;;;;;;4980761;28;20472;-96
2022/05/18 14:04:21;;;;;;;3.60;3.20;;;27.70;76.20;;;;;;4964656;28;20422;-94
2022/05/18 14:06:49;;;;;;;3.50;3.20;;;27.80;76.10;;;;;;4981120;28;20445;-95
2022/05/18 14:09:17;;;;;;;4.17;2.80;;;27.80;76.00;;;;;;4996581;28;20876;-93